createdAt,value
2023-02-24T00:02:06.234Z,11.64
2023-02-24T00:04:40.429Z,11.24
2023-02-24T00:07:10.741Z,11.31
2023-02-24T00:09:39.620Z,11.34
2023-02-24T00:12:14.008Z,11.02
2023-02-24T00:14:45.180Z,11.02
2023-02-24T00:17:17.173Z,11.07
2023-02-24T00:19:46.636Z,11.19
2023-02-24T00:22:14.927Z,11.28
2023-02-24T00:24:42.779Z,11.17
2023-02-24T00:27:13.655Z,11.07
2023-02-24T00:29:46.208Z,11.30
2023-02-24T00:32:15.163Z,11.29
2023-02-24T00:34:43.624Z,11.31
2023-02-24T00:37:12.358Z,11.51
2023-02-24T00:39:41.997Z,11.34
2023-02-24T00:42:12.243Z,11.20
2023-02-24T00:44:44.422Z,11.26
2023-02-24T00:47:16.501Z,11.20
2023-02-24T00:49:44.871Z,11.24
2023-02-24T00:52:20.074Z,11.44
2023-02-24T00:54:49.929Z,11.53
2023-02-24T00:57:20.609Z,11.56
2023-02-24T00:59:51.603Z,11.57
2023-02-24T01:02:20.753Z,11.57
2023-02-24T01:04:50.151Z,11.41
2023-02-24T01:07:18.431Z,11.13
2023-02-24T01:09:46.480Z,11.12
2023-02-24T01:12:33.798Z,11.20
2023-02-24T01:15:03.375Z,11.08
2023-02-24T01:17:31.874Z,10.96
2023-02-24T01:20:01.441Z,11.24
2023-02-24T01:22:30.673Z,11.07
2023-02-24T01:24:58.952Z,11.06
2023-02-24T01:27:27.202Z,11.22
2023-02-24T01:29:55.051Z,11.06
2023-02-24T01:32:25.683Z,11.13
2023-02-24T01:34:53.823Z,11.07
2023-02-24T01:37:22.317Z,11.04
2023-02-24T01:39:50.605Z,11.13
2023-02-24T01:42:21.491Z,10.97
2023-02-24T01:44:52.354Z,10.90
2023-02-24T01:47:22.801Z,11.00
2023-02-24T01:49:54.413Z,10.93
2023-02-24T01:52:26.846Z,10.77
2023-02-24T01:55:20.384Z,10.67
2023-02-24T01:57:51.997Z,10.63
2023-02-24T02:00:40.591Z,10.71
2023-02-24T02:03:19.838Z,10.80
2023-02-24T02:05:48.964Z,10.73
2023-02-24T02:08:18.799Z,10.68
2023-02-24T02:10:47.231Z,10.65
2023-02-24T02:13:21.927Z,10.76
2023-02-24T02:15:59.679Z,10.85
2023-02-24T02:18:48.046Z,11.15
2023-02-24T02:21:55.341Z,11.02
2023-02-24T02:24:40.348Z,10.97
2023-02-24T02:27:33.367Z,10.81
2023-02-24T02:30:17.814Z,10.88
2023-02-24T02:32:52.705Z,10.71
2023-02-24T02:35:37.308Z,10.84
2023-02-24T02:38:26.222Z,10.75
2023-02-24T02:41:23.977Z,10.64
2023-02-24T02:43:57.286Z,10.59
2023-02-24T02:46:35.107Z,10.44
2023-02-24T02:49:24.628Z,10.36
2023-02-24T02:51:59.914Z,10.29
2023-02-24T02:54:50.095Z,10.15
2023-02-24T02:57:28.321Z,10.45
2023-02-24T03:00:14.299Z,10.49
2023-02-24T03:02:47.346Z,10.36
2023-02-24T03:05:20.791Z,10.52
2023-02-24T03:07:53.531Z,10.40
2023-02-24T03:10:28.201Z,10.42
2023-02-24T03:13:01.105Z,10.83
2023-02-24T03:15:33.808Z,10.73
2023-02-24T03:18:10.680Z,10.82
2023-02-24T03:21:29.522Z,10.83
2023-02-24T03:23:57.942Z,10.70
2023-02-24T03:26:50.047Z,10.64
2023-02-24T03:29:27.655Z,10.47
2023-02-24T03:32:09.586Z,10.64
2023-02-24T03:35:04.854Z,10.71
2023-02-24T03:37:34.483Z,10.84
2023-02-24T03:40:14.953Z,10.65
2023-02-24T03:42:51.104Z,10.65
2023-02-24T03:45:23.016Z,11.00
2023-02-24T03:47:54.380Z,10.84
2023-02-24T03:50:23.470Z,10.63
2023-02-24T03:53:08.488Z,10.60
2023-02-24T03:56:05.202Z,10.54
2023-02-24T03:59:05.372Z,10.65
2023-02-24T04:01:58.272Z,10.63
2023-02-24T04:04:48.775Z,10.53
2023-02-24T04:07:41.562Z,10.51
2023-02-24T04:10:34.502Z,10.49
2023-02-24T04:13:05.002Z,10.51
2023-02-24T04:15:44.599Z,10.79
2023-02-24T04:18:13.934Z,10.78
2023-02-24T04:20:45.775Z,10.63
2023-02-24T04:23:18.660Z,10.68
2023-02-24T04:25:52.038Z,10.54
2023-02-24T04:28:23.640Z,10.41
2023-02-24T04:31:00.986Z,10.37
2023-02-24T04:33:29.617Z,10.44
2023-02-24T04:35:57.815Z,10.71
2023-02-24T04:38:28.176Z,10.49
2023-02-24T04:40:57.698Z,10.68
2023-02-24T04:43:26.109Z,10.70
2023-02-24T04:45:56.006Z,10.73
2023-02-24T04:48:24.358Z,10.75
2023-02-24T04:50:55.551Z,10.80
2023-02-24T04:53:27.537Z,10.85
2023-02-24T04:55:56.526Z,10.84
2023-02-24T04:58:29.637Z,10.96
2023-02-24T05:00:57.662Z,10.97
2023-02-24T05:03:29.312Z,10.98
2023-02-24T05:06:02.218Z,11.10
2023-02-24T05:08:31.411Z,11.22
2023-02-24T05:11:04.125Z,11.14
2023-02-24T05:13:34.094Z,11.11
2023-02-24T05:16:08.877Z,11.11
2023-02-24T05:18:37.573Z,11.29
2023-02-24T05:21:27.079Z,11.19
2023-02-24T05:23:58.407Z,11.35
2023-02-24T05:26:27.294Z,11.31
2023-02-24T05:28:56.795Z,11.35
2023-02-24T05:31:28.539Z,11.09
2023-02-24T05:34:03.380Z,11.34
2023-02-24T05:36:35.052Z,11.11
2023-02-24T05:39:07.856Z,11.22
2023-02-24T05:41:39.064Z,11.21
2023-02-24T05:44:13.641Z,11.04
2023-02-24T05:46:44.941Z,11.22
2023-02-24T05:49:20.962Z,11.08
2023-02-24T05:51:57.553Z,11.14
2023-02-24T05:54:31.650Z,11.59
2023-02-24T05:57:09.470Z,11.64
2023-02-24T05:59:39.406Z,11.48
2023-02-24T06:02:11.650Z,11.33
2023-02-24T06:04:51.666Z,11.72
2023-02-24T06:07:25.119Z,11.58
2023-02-24T06:09:57.489Z,11.60
2023-02-24T06:12:28.573Z,11.66
2023-02-24T06:15:00.245Z,11.79
2023-02-24T06:17:28.619Z,11.85
2023-02-24T06:19:57.206Z,11.72
2023-02-24T06:22:26.914Z,11.56
2023-02-24T06:24:57.266Z,11.55
2023-02-24T06:27:25.736Z,11.80
2023-02-24T06:29:55.211Z,11.63
2023-02-24T06:32:26.814Z,11.48
2023-02-24T06:34:55.655Z,11.55
2023-02-24T06:37:23.638Z,11.69
2023-02-24T06:39:52.151Z,11.20
2023-02-24T06:42:20.134Z,11.15
2023-02-24T06:44:49.134Z,11.35
2023-02-24T06:47:18.272Z,11.67
2023-02-24T06:49:46.585Z,11.37
2023-02-24T06:52:19.318Z,11.18
2023-02-24T06:54:49.754Z,11.01
2023-02-24T06:57:18.079Z,11.23
2023-02-24T06:59:46.555Z,11.25
2023-02-24T07:02:14.592Z,11.39
2023-02-24T07:04:45.656Z,11.67
2023-02-24T07:07:17.772Z,11.21
2023-02-24T07:09:46.284Z,11.43
2023-02-24T07:12:15.848Z,11.33
2023-02-24T07:14:44.303Z,11.33
2023-02-24T07:17:14.954Z,11.43
2023-02-24T07:19:44.494Z,11.18
2023-02-24T07:22:14.907Z,10.97
2023-02-24T07:24:46.611Z,11.26
2023-02-24T07:27:23.379Z,11.40
2023-02-24T07:29:53.181Z,11.42
2023-02-24T07:32:23.320Z,11.82
2023-02-24T07:34:51.889Z,11.84
2023-02-24T07:37:20.846Z,11.74
2023-02-24T07:39:49.250Z,11.64
2023-02-24T07:42:17.396Z,11.57
2023-02-24T07:44:49.409Z,11.85
2023-02-24T07:47:17.899Z,11.91
2023-02-24T07:49:46.813Z,11.66
2023-02-24T07:52:16.612Z,11.52
2023-02-24T07:54:45.599Z,11.26
2023-02-24T07:57:14.404Z,11.42
2023-02-24T07:59:45.706Z,11.49
2023-02-24T08:02:14.067Z,11.61
2023-02-24T08:04:50.629Z,11.75
2023-02-24T08:07:25.213Z,11.88
2023-02-24T08:10:12.441Z,11.82
2023-02-24T08:12:44.989Z,11.70
2023-02-24T08:15:24.398Z,12.10
2023-02-24T08:17:57.422Z,12.05
2023-02-24T08:20:52.652Z,11.98
2023-02-24T08:23:23.736Z,12.22
2023-02-24T08:25:54.069Z,12.38
2023-02-24T08:28:27.109Z,11.90
2023-02-24T08:30:56.013Z,12.01
2023-02-24T08:33:24.197Z,12.15
2023-02-24T08:36:01.687Z,12.39
2023-02-24T08:38:40.262Z,12.25
2023-02-24T08:41:18.669Z,12.41
2023-02-24T08:43:48.801Z,12.71
2023-02-24T08:46:27.070Z,12.64
2023-02-24T08:48:58.245Z,12.44
2023-02-24T08:51:35.345Z,12.49
2023-02-24T08:54:15.593Z,12.46
2023-02-24T08:56:49.955Z,12.37
2023-02-24T08:59:38.340Z,12.20
2023-02-24T09:02:18.934Z,12.48
2023-02-24T09:04:49.686Z,12.58
2023-02-24T09:07:25.676Z,12.04
2023-02-24T09:09:57.375Z,12.24
2023-02-24T09:12:29.393Z,12.33
2023-02-24T09:15:05.053Z,12.59
2023-02-24T09:17:46.438Z,12.62
2023-02-24T09:20:36.185Z,12.55
2023-02-24T09:23:06.353Z,12.43
2023-02-24T09:25:41.134Z,12.68
2023-02-24T09:28:17.388Z,12.65
2023-02-24T09:31:17.349Z,12.73
2023-02-24T09:33:51.366Z,12.75
2023-02-24T09:36:20.716Z,12.88
2023-02-24T09:39:00.982Z,13.16
2023-02-24T09:41:54.141Z,13.12
2023-02-24T09:44:39.681Z,13.18
2023-02-24T09:47:57.186Z,13.32
2023-02-24T09:51:04.245Z,13.41
2023-02-24T09:53:49.570Z,13.46
2023-02-24T09:56:25.893Z,13.16
2023-02-24T09:59:15.315Z,13.42
2023-02-24T10:01:46.616Z,13.36
2023-02-24T10:04:34.062Z,13.43
2023-02-24T10:07:30.652Z,13.26
2023-02-24T10:10:20.467Z,13.44
2023-02-24T10:13:14.393Z,14.11
2023-02-24T10:15:58.506Z,14.39
2023-02-24T10:18:31.995Z,14.61
2023-02-24T10:21:48.505Z,14.77
2023-02-24T10:24:29.699Z,14.90
2023-02-24T10:27:27.524Z,15.03
2023-02-24T10:30:20.020Z,15.45
2023-02-24T10:33:05.649Z,15.42
2023-02-24T10:35:34.452Z,15.09
2023-02-24T10:38:06.153Z,15.25
2023-02-24T10:40:45.320Z,15.92
2023-02-24T10:43:30.346Z,15.50
2023-02-24T10:46:06.473Z,15.32
2023-02-24T10:48:42.501Z,15.65
2023-02-24T10:51:20.744Z,15.58
2023-02-24T10:54:13.385Z,15.64
2023-02-24T10:56:55.553Z,15.46
2023-02-24T10:59:49.860Z,15.44
2023-02-24T11:02:33.111Z,15.87
2023-02-24T11:05:27.423Z,15.62
2023-02-24T11:08:33.623Z,15.67
2023-02-24T11:11:07.465Z,15.70
2023-02-24T11:13:56.024Z,16.15
2023-02-24T11:16:42.479Z,17.19
2023-02-24T11:19:11.549Z,16.95
2023-02-24T11:21:39.619Z,17.07
2023-02-24T11:24:18.450Z,17.07
2023-02-24T11:26:47.004Z,17.53
2023-02-24T11:29:27.333Z,16.70
2023-02-24T11:32:01.992Z,16.94
2023-02-24T11:35:18.348Z,16.93
2023-02-24T11:38:06.429Z,16.75
2023-02-24T11:40:42.148Z,17.02
2023-02-24T11:43:18.772Z,17.43
2023-02-24T11:45:52.781Z,17.40
2023-02-24T11:48:32.407Z,17.29
2023-02-24T11:51:11.242Z,18.40
2023-02-24T11:53:42.122Z,18.89
2023-02-24T11:56:22.360Z,18.77
2023-02-24T11:59:25.397Z,17.20
2023-02-24T12:02:22.056Z,17.56
2023-02-24T12:05:03.905Z,18.37
2023-02-24T12:07:42.802Z,17.80
2023-02-24T12:10:20.589Z,18.29
2023-02-24T12:13:11.440Z,17.15
2023-02-24T12:15:46.991Z,17.11
2023-02-24T12:18:39.529Z,17.79
2023-02-24T12:21:10.475Z,18.76
2023-02-24T12:23:44.886Z,19.64
2023-02-24T12:26:40.078Z,19.95
2023-02-24T12:29:08.431Z,18.53
2023-02-24T12:31:41.927Z,19.05
2023-02-24T12:34:23.675Z,19.82
2023-02-24T12:37:30.592Z,20.66
2023-02-24T12:40:01.680Z,20.31
2023-02-24T12:42:29.531Z,19.81
2023-02-24T12:45:26.449Z,18.62
2023-02-24T12:48:12.301Z,17.92
2023-02-24T12:50:49.297Z,18.23
2023-02-24T12:53:43.551Z,18.07
2023-02-24T12:56:27.900Z,18.59
2023-02-24T12:59:05.752Z,18.04
2023-02-24T13:01:51.931Z,18.82
2023-02-24T13:04:48.397Z,18.62
2023-02-24T13:07:32.383Z,18.72
2023-02-24T13:10:06.376Z,19.23
2023-02-24T13:12:57.256Z,19.42
2023-02-24T13:15:31.671Z,20.30
2023-02-24T13:18:00.476Z,19.86
2023-02-24T13:20:30.246Z,19.94
2023-02-24T13:23:00.434Z,20.44
2023-02-24T13:25:37.483Z,20.03
2023-02-24T13:28:26.252Z,19.15
2023-02-24T13:31:04.282Z,19.63
2023-02-24T13:33:36.329Z,19.59
2023-02-24T13:36:22.001Z,18.73
2023-02-24T13:39:06.687Z,18.78
2023-02-24T13:41:41.151Z,19.56
2023-02-24T13:44:29.207Z,19.23
2023-02-24T13:47:29.471Z,18.24
2023-02-24T13:50:27.225Z,17.94
2023-02-24T13:53:24.203Z,17.78
2023-02-24T13:55:58.599Z,18.28
2023-02-24T13:58:40.317Z,18.12
2023-02-24T14:01:18.752Z,18.05
2023-02-24T14:04:22.914Z,18.45
2023-02-24T14:06:58.182Z,18.71
2023-02-24T14:09:32.972Z,18.12
2023-02-24T14:12:08.314Z,18.50
2023-02-24T14:14:36.863Z,18.63
2023-02-24T14:17:05.239Z,18.18
2023-02-24T14:19:33.264Z,18.30
2023-02-24T14:22:02.540Z,17.88
2023-02-24T14:24:30.541Z,17.88
2023-02-24T14:26:59.795Z,17.75
2023-02-24T14:29:32.400Z,18.16
2023-02-24T14:32:01.623Z,17.94
2023-02-24T14:34:32.693Z,17.67
2023-02-24T14:37:04.232Z,17.66
2023-02-24T14:39:34.476Z,17.90
2023-02-24T14:42:09.760Z,18.12
2023-02-24T14:44:47.902Z,17.35
2023-02-24T14:47:18.659Z,17.17
2023-02-24T14:49:57.394Z,17.28
2023-02-24T14:52:36.828Z,17.18
2023-02-24T14:55:26.712Z,17.11
2023-02-24T14:58:06.959Z,17.37
2023-02-24T15:00:49.152Z,17.00
2023-02-24T15:03:29.494Z,17.73
2023-02-24T15:06:04.915Z,17.16
2023-02-24T15:08:46.891Z,17.64
2023-02-24T15:11:17.530Z,17.60
2023-02-24T15:13:59.332Z,17.20
2023-02-24T15:16:33.959Z,17.08
2023-02-24T15:19:02.464Z,17.04
2023-02-24T15:21:39.490Z,17.10
2023-02-24T15:24:19.661Z,17.40
2023-02-24T15:26:59.998Z,17.36
2023-02-24T15:29:30.949Z,17.09
2023-02-24T15:32:01.089Z,17.27
2023-02-24T15:34:32.897Z,17.40
2023-02-24T15:37:15.087Z,17.51
2023-02-24T15:39:44.635Z,17.35
2023-02-24T15:42:28.661Z,17.20
2023-02-24T15:45:23.441Z,17.27
2023-02-24T15:47:54.746Z,17.46
2023-02-24T15:50:24.056Z,17.26
2023-02-24T15:52:52.156Z,17.44
2023-02-24T15:55:22.205Z,17.68
2023-02-24T15:58:01.567Z,17.40
2023-02-24T16:00:31.542Z,17.53
2023-02-24T16:02:59.507Z,17.71
2023-02-24T16:05:27.970Z,17.58
2023-02-24T16:07:56.463Z,17.33
2023-02-24T16:10:27.834Z,17.45
2023-02-24T16:13:01.687Z,17.23
2023-02-24T16:15:38.112Z,17.16
2023-02-24T16:18:20.985Z,16.96
2023-02-24T16:20:57.120Z,16.87
2023-02-24T16:23:26.625Z,17.00
2023-02-24T16:25:58.455Z,17.06
2023-02-24T16:28:27.336Z,17.00
2023-02-24T16:30:55.671Z,16.92
2023-02-24T16:33:24.275Z,16.74
2023-02-24T16:35:55.819Z,16.78
2023-02-24T16:38:27.122Z,16.46
2023-02-24T16:40:56.092Z,16.42
2023-02-24T16:43:24.949Z,16.39
2023-02-24T16:45:55.758Z,16.33
2023-02-24T16:48:26.667Z,16.44
2023-02-24T16:50:55.714Z,15.91
2023-02-24T16:53:24.845Z,15.92
2023-02-24T16:55:53.722Z,15.98
2023-02-24T16:58:23.629Z,16.14
2023-02-24T17:00:55.650Z,16.01
2023-02-24T17:03:30.860Z,15.82
2023-02-24T17:05:59.399Z,15.74
2023-02-24T17:08:27.379Z,15.56
2023-02-24T17:10:56.479Z,15.72
2023-02-24T17:13:24.379Z,15.54
2023-02-24T17:15:57.632Z,15.48
2023-02-24T17:18:27.131Z,15.60
2023-02-24T17:20:55.743Z,15.69
2023-02-24T17:23:24.047Z,15.78
2023-02-24T17:25:56.256Z,15.74
2023-02-24T17:28:24.432Z,15.56
2023-02-24T17:30:52.898Z,15.40
2023-02-24T17:33:21.085Z,15.41
2023-02-24T17:35:49.836Z,15.40
2023-02-24T17:38:21.678Z,15.45
2023-02-24T17:40:49.940Z,15.42
2023-02-24T17:43:18.137Z,15.22
2023-02-24T17:45:47.539Z,15.24
2023-02-24T17:48:16.209Z,15.24
2023-02-24T17:50:46.548Z,15.34
2023-02-24T17:53:15.627Z,15.45
2023-02-24T17:56:01.006Z,15.17
2023-02-24T17:58:30.253Z,15.03
2023-02-24T18:00:58.757Z,15.33
2023-02-24T18:03:26.778Z,15.43
2023-02-24T18:06:07.915Z,15.20
2023-02-24T18:08:37.106Z,15.02
2023-02-24T18:11:06.877Z,15.09
2023-02-24T18:13:34.919Z,15.43
2023-02-24T18:16:08.929Z,15.25
2023-02-24T18:18:37.359Z,15.51
2023-02-24T18:21:08.931Z,15.01
2023-02-24T18:23:40.423Z,15.17
2023-02-24T18:26:11.152Z,15.14
2023-02-24T18:28:39.636Z,15.01
2023-02-24T18:31:19.358Z,15.10
2023-02-24T18:33:47.730Z,15.00
2023-02-24T18:36:16.993Z,14.96
2023-02-24T18:38:45.392Z,15.09
2023-02-24T18:41:17.280Z,15.13
2023-02-24T18:43:49.458Z,15.30
2023-02-24T18:46:18.856Z,15.43
2023-02-24T18:48:47.694Z,15.52
2023-02-24T18:51:18.522Z,15.24
2023-02-24T18:53:47.263Z,15.31
2023-02-24T18:56:19.716Z,15.12
2023-02-24T18:58:50.074Z,15.14
2023-02-24T19:01:25.520Z,15.14
2023-02-24T19:03:55.565Z,15.32
2023-02-24T19:06:27.093Z,15.19
2023-02-24T19:09:12.711Z,15.50
2023-02-24T19:11:41.935Z,15.45
2023-02-24T19:14:12.092Z,15.57
2023-02-24T19:16:41.295Z,15.48
2023-02-24T19:19:16.266Z,15.59
2023-02-24T19:21:45.756Z,15.47
2023-02-24T19:24:14.200Z,15.34
2023-02-24T19:26:44.571Z,15.34
2023-02-24T19:29:12.648Z,15.20
2023-02-24T19:31:41.266Z,15.46
2023-02-24T19:34:13.156Z,15.41
2023-02-24T19:36:41.474Z,15.43
2023-02-24T19:39:12.633Z,15.49
2023-02-24T19:41:41.403Z,15.47
2023-02-24T19:44:10.696Z,15.36
2023-02-24T19:46:39.232Z,15.67
2023-02-24T19:49:07.447Z,15.56
2023-02-24T19:51:35.927Z,15.59
2023-02-24T19:54:06.379Z,15.60
2023-02-24T19:56:36.867Z,15.69
2023-02-24T19:59:06.943Z,15.59
2023-02-24T20:01:35.322Z,15.55
2023-02-24T20:04:04.133Z,15.71
2023-02-24T20:06:35.973Z,15.74
2023-02-24T20:09:15.291Z,15.57
2023-02-24T20:11:45.532Z,15.74
2023-02-24T20:14:17.040Z,15.58
2023-02-24T20:16:46.119Z,15.50
2023-02-24T20:19:15.445Z,15.40
2023-02-24T20:21:44.255Z,15.55
2023-02-24T20:24:15.709Z,15.22
2023-02-24T20:26:47.403Z,15.36
2023-02-24T20:29:17.016Z,15.41
2023-02-24T20:31:46.725Z,15.54
2023-02-24T20:34:17.208Z,15.55
2023-02-24T20:36:45.648Z,15.43
2023-02-24T20:39:13.912Z,15.44
2023-02-24T20:41:42.586Z,15.50
2023-02-24T20:44:12.023Z,15.54
2023-02-24T20:46:40.248Z,15.39
2023-02-24T20:49:12.015Z,15.37
2023-02-24T20:51:41.310Z,15.44
2023-02-24T20:54:11.538Z,15.43
2023-02-24T20:56:43.150Z,15.27
2023-02-24T20:59:16.890Z,15.28
2023-02-24T21:01:47.535Z,15.14
2023-02-24T21:04:18.527Z,15.17
2023-02-24T21:06:48.293Z,15.26
2023-02-24T21:09:16.604Z,15.24
2023-02-24T21:11:44.999Z,15.41
2023-02-24T21:14:15.809Z,15.31
2023-02-24T21:16:46.360Z,15.33
2023-02-24T21:19:14.921Z,15.33
2023-02-24T21:21:43.116Z,15.17
2023-02-24T21:24:10.892Z,15.30
2023-02-24T21:26:39.171Z,15.18
2023-02-24T21:29:07.223Z,14.92
2023-02-24T21:31:35.539Z,14.97
2023-02-24T21:34:04.022Z,15.05
2023-02-24T21:36:32.213Z,15.28
2023-02-24T21:39:01.087Z,15.17
2023-02-24T21:41:29.265Z,14.84
2023-02-24T21:43:57.246Z,14.83
2023-02-24T21:46:28.673Z,15.04
2023-02-24T21:49:00.468Z,15.02
2023-02-24T21:51:29.413Z,14.94
2023-02-24T21:53:58.107Z,14.82
2023-02-24T21:56:29.173Z,14.87
2023-02-24T21:59:03.414Z,15.08
2023-02-24T22:01:37.177Z,14.98
2023-02-24T22:04:08.218Z,14.56
2023-02-24T22:06:38.121Z,14.62
2023-02-24T22:09:08.014Z,14.60
2023-02-24T22:11:38.965Z,14.54
2023-02-24T22:14:09.015Z,14.48
2023-02-24T22:16:37.590Z,14.59
2023-02-24T22:19:05.772Z,14.53
2023-02-24T22:21:34.449Z,14.48
2023-02-24T22:24:03.315Z,14.46
2023-02-24T22:26:32.384Z,14.56
2023-02-24T22:29:00.804Z,14.55
2023-02-24T22:31:31.832Z,14.45
2023-02-24T22:34:00.429Z,14.47
2023-02-24T22:36:33.381Z,14.40
2023-02-24T22:39:01.889Z,14.47
2023-02-24T22:41:32.868Z,14.66
2023-02-24T22:44:05.169Z,14.76
2023-02-24T22:46:37.109Z,14.61
2023-02-24T22:49:05.995Z,14.56
2023-02-24T22:51:34.256Z,14.56
2023-02-24T22:54:02.282Z,14.53
2023-02-24T22:56:30.933Z,14.78
2023-02-24T22:58:59.386Z,14.80
2023-02-24T23:01:30.507Z,14.50
2023-02-24T23:04:03.791Z,14.55
2023-02-24T23:06:33.074Z,14.42
2023-02-24T23:09:02.134Z,14.41
2023-02-24T23:11:33.586Z,14.38
2023-02-24T23:14:04.133Z,14.38
2023-02-24T23:16:34.911Z,14.13
2023-02-24T23:19:07.489Z,14.23
2023-02-24T23:21:41.691Z,14.45
2023-02-24T23:24:11.422Z,14.46
2023-02-24T23:26:48.519Z,14.61
2023-02-24T23:29:17.977Z,14.30
2023-02-24T23:31:46.530Z,14.03
2023-02-24T23:34:15.021Z,14.00
2023-02-24T23:36:45.630Z,13.85
2023-02-24T23:39:16.359Z,13.99
2023-02-24T23:41:44.627Z,14.08
2023-02-24T23:44:12.867Z,13.82
2023-02-24T23:46:44.229Z,13.38
2023-02-24T23:49:11.983Z,13.54
2023-02-24T23:51:47.989Z,13.46
2023-02-24T23:54:18.224Z,13.38
2023-02-24T23:56:47.152Z,13.52
2023-02-24T23:59:15.311Z,13.29
